createdAt,value
2023-03-10T00:01:26.671Z,2.10
2023-03-10T00:03:55.432Z,2.10
2023-03-10T00:06:25.807Z,2.10
2023-03-10T00:08:53.936Z,2.28
2023-03-10T00:11:22.222Z,1.73
2023-03-10T00:13:50.164Z,2.10
2023-03-10T00:16:26.872Z,2.33
2023-03-10T00:18:54.702Z,1.85
2023-03-10T00:21:28.152Z,2.03
2023-03-10T00:23:55.912Z,2.47
2023-03-10T00:26:27.268Z,2.20
2023-03-10T00:28:55.403Z,1.85
2023-03-10T00:31:25.921Z,1.77
2023-03-10T00:33:55.130Z,3.08
2023-03-10T00:36:25.228Z,1.50
2023-03-10T00:38:53.936Z,1.67
2023-03-10T00:41:23.792Z,1.48
2023-03-10T00:43:52.024Z,1.50
2023-03-10T00:46:20.134Z,1.55
2023-03-10T00:48:47.650Z,1.40
2023-03-10T00:51:15.732Z,1.73
2023-03-10T00:53:43.569Z,1.35
2023-03-10T00:56:17.435Z,1.35
2023-03-10T00:58:46.786Z,1.77
2023-03-10T01:01:15.982Z,1.75
2023-03-10T01:03:43.785Z,1.92
2023-03-10T01:06:12.958Z,1.48
2023-03-10T01:08:41.291Z,1.60
2023-03-10T01:11:09.288Z,1.92
2023-03-10T01:13:37.156Z,2.00
2023-03-10T01:16:05.930Z,1.98
2023-03-10T01:18:33.577Z,1.67
2023-03-10T01:21:01.240Z,1.55
2023-03-10T01:23:29.306Z,1.30
2023-03-10T01:25:56.914Z,1.02
2023-03-10T01:28:25.212Z,1.10
2023-03-10T01:30:53.317Z,1.23
2023-03-10T01:33:21.125Z,1.40
2023-03-10T01:35:48.758Z,1.00
2023-03-10T01:38:16.429Z,1.60
2023-03-10T01:40:49.381Z,1.35
2023-03-10T01:43:20.261Z,1.10
2023-03-10T01:45:51.951Z,2.10
2023-03-10T01:48:21.932Z,1.92
2023-03-10T01:50:53.796Z,1.58
2023-03-10T01:53:22.668Z,1.60
2023-03-10T01:55:56.144Z,1.83
2023-03-10T01:58:27.920Z,1.58
2023-03-10T02:00:56.039Z,2.40
2023-03-10T02:03:42.468Z,1.30
2023-03-10T02:06:15.352Z,1.20
2023-03-10T02:08:47.497Z,1.60
2023-03-10T02:11:15.852Z,1.63
2023-03-10T02:13:43.435Z,1.38
2023-03-10T02:16:11.574Z,1.23
2023-03-10T02:18:43.528Z,1.60
2023-03-10T02:21:43.508Z,1.15
2023-03-10T02:24:45.739Z,1.20
2023-03-10T02:27:33.583Z,1.20
2023-03-10T02:30:14.617Z,1.33
2023-03-10T02:35:11.980Z,0.80
2023-03-10T02:37:50.754Z,1.05
2023-03-10T02:40:34.737Z,0.80
2023-03-10T02:43:14.072Z,1.77
2023-03-10T02:45:45.720Z,0.90
2023-03-10T02:48:18.942Z,1.10
2023-03-10T02:50:50.459Z,0.70
2023-03-10T02:53:23.619Z,0.77
2023-03-10T02:55:52.071Z,0.85
2023-03-10T02:58:21.681Z,0.90
2023-03-10T03:00:50.259Z,1.15
2023-03-10T03:03:20.718Z,0.90
2023-03-10T03:05:49.401Z,0.70
2023-03-10T03:08:18.443Z,0.88
2023-03-10T03:10:46.459Z,0.98
2023-03-10T03:13:14.492Z,1.17
2023-03-10T03:15:42.550Z,1.10
2023-03-10T03:18:10.509Z,0.90
2023-03-10T03:20:40.967Z,1.50
2023-03-10T03:23:10.041Z,1.15
2023-03-10T03:25:40.195Z,1.08
2023-03-10T03:28:11.338Z,0.85
2023-03-10T03:30:39.699Z,0.80
2023-03-10T03:33:08.254Z,1.00
2023-03-10T03:35:37.888Z,1.60
2023-03-10T03:38:07.466Z,1.38
2023-03-10T03:40:37.832Z,1.50
2023-03-10T03:43:06.563Z,1.05
2023-03-10T03:45:35.025Z,1.95
2023-03-10T03:48:02.924Z,1.30
2023-03-10T03:50:32.987Z,1.48
2023-03-10T03:53:09.215Z,1.20
2023-03-10T03:55:36.836Z,1.70
2023-03-10T03:58:04.556Z,1.30
2023-03-10T04:00:34.594Z,1.42
2023-03-10T04:03:06.557Z,2.30
2023-03-10T04:05:34.947Z,2.40
2023-03-10T04:08:02.429Z,5.28
2023-03-10T04:10:31.186Z,4.30
2023-03-10T04:12:59.565Z,3.50
2023-03-10T04:15:27.973Z,3.53
2023-03-10T04:17:57.853Z,3.60
2023-03-10T04:20:26.136Z,3.55
2023-03-10T04:22:54.314Z,3.83
2023-03-10T04:25:28.317Z,3.70
2023-03-10T04:27:57.776Z,3.85
2023-03-10T04:30:29.359Z,3.40
2023-03-10T04:32:59.955Z,4.05
2023-03-10T04:35:29.907Z,4.93
2023-03-10T04:37:58.785Z,5.25
2023-03-10T04:40:27.292Z,5.60
2023-03-10T04:42:55.056Z,5.53
2023-03-10T04:45:22.811Z,7.20
2023-03-10T04:47:50.437Z,6.50
2023-03-10T04:50:18.176Z,6.70
2023-03-10T04:52:50.030Z,6.30
2023-03-10T04:55:20.690Z,6.70
2023-03-10T04:57:49.577Z,8.13
2023-03-10T05:00:17.803Z,6.85
2023-03-10T05:02:45.539Z,6.78
2023-03-10T05:05:14.507Z,8.27
2023-03-10T05:07:45.597Z,8.15
2023-03-10T05:10:13.213Z,7.25
2023-03-10T05:12:42.335Z,8.10
2023-03-10T05:15:11.719Z,8.87
2023-03-10T05:17:39.485Z,13.50
2023-03-10T05:20:09.821Z,17.25
2023-03-10T05:22:39.057Z,18.85
2023-03-10T05:25:11.677Z,18.38
2023-03-10T05:27:41.026Z,18.75
2023-03-10T05:30:11.552Z,21.65
2023-03-10T05:32:39.048Z,16.23
2023-03-10T05:35:07.400Z,16.15
2023-03-10T05:37:42.197Z,15.40
2023-03-10T05:40:14.163Z,13.20
2023-03-10T05:42:41.905Z,14.80
2023-03-10T05:45:11.081Z,14.45
2023-03-10T05:47:39.488Z,14.23
2023-03-10T05:50:08.592Z,12.43
2023-03-10T05:52:38.665Z,12.05
2023-03-10T05:55:08.162Z,10.20
2023-03-10T05:57:35.895Z,10.68
2023-03-10T06:00:05.836Z,10.18
2023-03-10T06:02:41.489Z,9.73
2023-03-10T06:05:14.806Z,9.48
2023-03-10T06:07:42.369Z,8.73
2023-03-10T06:10:10.810Z,9.07
2023-03-10T06:12:38.841Z,7.10
2023-03-10T06:15:07.142Z,6.35
2023-03-10T06:17:34.650Z,6.60
2023-03-10T06:20:02.460Z,6.13
2023-03-10T06:22:31.366Z,7.00
2023-03-10T06:24:59.512Z,6.53
2023-03-10T06:27:27.194Z,7.50
2023-03-10T06:29:55.087Z,6.82
2023-03-10T06:32:23.222Z,6.45
2023-03-10T06:34:50.783Z,6.43
2023-03-10T06:37:18.497Z,6.75
2023-03-10T06:39:46.252Z,6.38
2023-03-10T06:42:14.110Z,5.65
2023-03-10T06:44:41.772Z,4.90
2023-03-10T06:47:09.615Z,6.05
2023-03-10T06:49:37.249Z,5.18
2023-03-10T06:52:05.119Z,4.78
2023-03-10T06:54:32.638Z,4.38
2023-03-10T06:56:59.997Z,4.45
2023-03-10T06:59:27.384Z,4.15
2023-03-10T07:01:54.851Z,4.13
2023-03-10T07:04:22.392Z,3.80
2023-03-10T07:06:49.907Z,4.13
2023-03-10T07:09:17.368Z,4.10
2023-03-10T07:11:44.861Z,4.13
2023-03-10T07:14:12.415Z,4.10
2023-03-10T07:16:40.513Z,5.28
2023-03-10T07:19:07.971Z,4.35
2023-03-10T07:21:35.480Z,3.10
2023-03-10T07:24:03.218Z,3.30
2023-03-10T07:26:31.076Z,2.95
2023-03-10T07:28:58.555Z,3.08
2023-03-10T07:31:26.146Z,2.20
2023-03-10T07:33:53.612Z,2.13
2023-03-10T07:36:21.122Z,2.17
2023-03-10T07:38:49.570Z,2.00
2023-03-10T07:41:19.680Z,2.50
2023-03-10T07:43:47.972Z,2.20
2023-03-10T07:46:15.987Z,2.40
2023-03-10T07:48:44.567Z,2.08
2023-03-10T07:51:12.531Z,2.08
2023-03-10T07:53:40.063Z,2.13
2023-03-10T07:56:09.411Z,2.00
2023-03-10T07:58:37.930Z,2.30
2023-03-10T08:01:08.670Z,1.98
2023-03-10T08:03:36.130Z,2.00
2023-03-10T08:06:05.623Z,1.90
2023-03-10T08:08:33.723Z,1.90
2023-03-10T08:11:06.274Z,1.40
2023-03-10T08:13:34.270Z,1.50
2023-03-10T08:16:02.473Z,1.17
2023-03-10T08:18:31.594Z,1.17
2023-03-10T08:20:59.696Z,1.20
2023-03-10T08:23:27.200Z,1.50
2023-03-10T08:25:54.907Z,1.60
2023-03-10T08:28:22.382Z,1.40
2023-03-10T08:31:03.597Z,1.30
2023-03-10T08:33:33.039Z,1.25
2023-03-10T08:36:14.001Z,1.05
2023-03-10T08:38:42.227Z,1.48
2023-03-10T08:41:22.732Z,1.30
2023-03-10T08:43:52.397Z,1.85
2023-03-10T08:46:21.338Z,1.45
2023-03-10T08:48:49.205Z,1.33
2023-03-10T08:51:17.287Z,1.58
2023-03-10T08:53:47.627Z,1.98
2023-03-10T08:56:16.232Z,1.50
2023-03-10T08:58:44.201Z,1.60
2023-03-10T09:01:14.434Z,2.10
2023-03-10T09:03:43.829Z,2.00
2023-03-10T09:06:11.327Z,2.53
2023-03-10T09:08:39.752Z,2.15
2023-03-10T09:11:08.220Z,2.30
2023-03-10T09:13:35.729Z,2.05
2023-03-10T09:16:03.490Z,1.67
2023-03-10T09:18:31.045Z,1.42
2023-03-10T09:20:58.502Z,1.75
2023-03-10T09:23:26.086Z,1.42
2023-03-10T09:25:53.607Z,0.93
2023-03-10T09:28:21.722Z,0.82
2023-03-10T09:30:50.924Z,0.90
2023-03-10T09:33:20.321Z,0.82
2023-03-10T09:36:05.085Z,0.70
2023-03-10T09:38:33.752Z,0.73
2023-03-10T09:41:10.362Z,0.73
2023-03-10T09:43:41.569Z,1.40
2023-03-10T09:46:20.708Z,6.05
2023-03-10T09:49:00.775Z,6.50
2023-03-10T09:51:29.368Z,5.17
2023-03-10T09:54:33.641Z,4.65
2023-03-10T09:57:01.598Z,1.85
2023-03-10T09:59:35.683Z,2.30
2023-03-10T10:02:20.168Z,1.83
2023-03-10T10:04:53.532Z,2.55
2023-03-10T10:07:24.891Z,1.98
2023-03-10T10:10:03.098Z,3.13
2023-03-10T10:12:30.522Z,0.90
2023-03-10T10:15:01.886Z,0.98
2023-03-10T10:17:29.356Z,0.80
2023-03-10T10:19:57.612Z,0.80
2023-03-10T10:22:34.505Z,0.90
2023-03-10T10:25:24.087Z,0.60
2023-03-10T10:27:54.876Z,0.60
2023-03-10T10:30:32.860Z,1.10
2023-03-10T10:33:05.709Z,1.88
2023-03-10T10:35:39.262Z,1.10
2023-03-10T10:38:17.155Z,1.50
2023-03-10T10:40:48.867Z,1.00
2023-03-10T10:43:21.046Z,0.60
2023-03-10T10:46:05.883Z,1.00
2023-03-10T10:48:41.700Z,0.88
2023-03-10T10:51:28.910Z,0.68
2023-03-10T10:54:06.488Z,0.60
2023-03-10T10:56:34.191Z,0.60
2023-03-10T10:59:20.940Z,1.00
2023-03-10T11:02:03.263Z,0.40
2023-03-10T11:04:43.811Z,0.60
2023-03-10T11:07:17.646Z,0.93
2023-03-10T11:09:46.170Z,0.60
2023-03-10T11:12:45.281Z,0.70
2023-03-10T11:15:36.594Z,0.73
2023-03-10T11:18:06.906Z,0.80
2023-03-10T11:20:52.353Z,0.80
2023-03-10T11:23:19.939Z,0.70
2023-03-10T11:26:05.592Z,0.80
2023-03-10T11:29:05.360Z,0.90
2023-03-10T11:31:49.711Z,1.15
2023-03-10T11:34:30.288Z,1.10
2023-03-10T11:37:22.551Z,1.08
2023-03-10T11:40:07.894Z,0.60
2023-03-10T11:42:50.601Z,0.77
2023-03-10T11:45:18.097Z,0.50
2023-03-10T11:47:51.158Z,0.70
2023-03-10T11:50:41.377Z,1.15
2023-03-10T11:53:40.033Z,0.50
2023-03-10T11:56:10.843Z,0.75
2023-03-10T11:58:50.686Z,0.60
2023-03-10T12:01:43.999Z,0.80
2023-03-10T12:04:37.235Z,0.95
2023-03-10T12:07:16.356Z,0.90
2023-03-10T12:09:56.010Z,0.93
2023-03-10T12:12:36.306Z,1.02
2023-03-10T12:15:22.519Z,1.10
2023-03-10T12:17:52.230Z,1.20
2023-03-10T12:20:20.489Z,1.83
2023-03-10T12:22:59.742Z,2.40
2023-03-10T12:25:30.408Z,2.40
2023-03-10T12:28:16.602Z,2.92
2023-03-10T12:30:49.020Z,3.58
2023-03-10T12:33:42.011Z,3.38
2023-03-10T12:36:15.809Z,3.10
2023-03-10T12:39:15.649Z,3.20
2023-03-10T12:41:52.541Z,2.65
2023-03-10T12:44:26.584Z,2.40
2023-03-10T12:47:13.958Z,2.20
2023-03-10T12:49:57.521Z,1.73
2023-03-10T12:52:47.993Z,1.60
2023-03-10T12:55:17.536Z,1.70
2023-03-10T12:57:56.409Z,1.10
2023-03-10T13:00:40.324Z,1.00
2023-03-10T13:03:10.683Z,1.05
2023-03-10T13:05:41.881Z,1.17
2023-03-10T13:08:20.170Z,1.08
2023-03-10T13:10:54.479Z,1.17
2023-03-10T13:13:25.434Z,1.10
2023-03-10T13:16:05.427Z,1.27
2023-03-10T13:18:34.058Z,1.17
2023-03-10T13:21:01.945Z,1.48
2023-03-10T13:23:34.352Z,1.20
2023-03-10T13:26:07.328Z,1.65
2023-03-10T13:28:35.968Z,1.60
2023-03-10T13:31:14.514Z,1.92
2023-03-10T13:33:53.505Z,1.20
2023-03-10T13:36:36.080Z,1.50
2023-03-10T13:39:27.382Z,1.17
2023-03-10T13:41:59.355Z,1.50
2023-03-10T13:44:32.874Z,0.90
2023-03-10T13:47:04.397Z,1.10
2023-03-10T13:49:34.896Z,1.13
2023-03-10T13:52:06.719Z,1.35
2023-03-10T13:54:36.083Z,1.30
2023-03-10T13:57:21.992Z,1.30
2023-03-10T13:59:49.955Z,1.45
2023-03-10T14:02:28.101Z,1.25
2023-03-10T14:04:57.591Z,1.23
2023-03-10T14:07:26.301Z,1.63
2023-03-10T14:10:15.109Z,1.48
2023-03-10T14:12:43.939Z,2.80
2023-03-10T14:15:14.450Z,2.05
2023-03-10T14:17:43.515Z,1.83
2023-03-10T14:20:12.921Z,3.40
2023-03-10T14:22:43.663Z,1.90
2023-03-10T14:25:16.780Z,1.92
2023-03-10T14:27:48.471Z,1.80
2023-03-10T14:30:30.405Z,2.13
2023-03-10T14:32:59.889Z,1.48
2023-03-10T14:35:28.991Z,1.42
2023-03-10T14:37:57.029Z,1.10
2023-03-10T14:40:25.446Z,1.30
2023-03-10T14:42:54.399Z,1.02
2023-03-10T14:45:33.182Z,1.35
2023-03-10T14:48:07.252Z,1.30
2023-03-10T14:50:35.640Z,1.08
2023-03-10T14:53:03.262Z,1.10
2023-03-10T14:55:30.734Z,1.23
2023-03-10T14:58:01.027Z,1.50
2023-03-10T15:00:28.803Z,1.60
2023-03-10T15:02:56.499Z,1.30
2023-03-10T15:05:34.529Z,1.35
2023-03-10T15:08:05.326Z,1.30
2023-03-10T15:10:42.188Z,1.65
2023-03-10T15:13:15.329Z,7.35
2023-03-10T15:15:45.974Z,1.60
2023-03-10T15:18:16.352Z,1.45
2023-03-10T15:20:44.365Z,1.58
2023-03-10T15:23:16.496Z,2.13
2023-03-10T15:25:47.014Z,1.45
2023-03-10T15:28:14.946Z,1.20
2023-03-10T15:30:42.557Z,1.20
2023-03-10T15:33:10.911Z,1.27
2023-03-10T15:35:39.139Z,1.10
2023-03-10T15:38:06.770Z,2.08
2023-03-10T15:40:36.327Z,1.10
2023-03-10T15:43:03.922Z,1.50
2023-03-10T15:45:32.025Z,1.27
2023-03-10T15:48:00.019Z,1.55
2023-03-10T15:50:27.962Z,1.50
2023-03-10T15:52:58.336Z,1.70
2023-03-10T15:55:28.051Z,1.77
2023-03-10T15:57:57.633Z,1.42
2023-03-10T16:00:26.845Z,1.90
2023-03-10T16:02:54.722Z,1.60
2023-03-10T16:05:22.670Z,1.60
2023-03-10T16:07:51.416Z,1.60
2023-03-10T16:10:20.840Z,1.70
2023-03-10T16:12:48.366Z,1.50
2023-03-10T16:15:18.349Z,1.67
2023-03-10T16:17:46.221Z,2.13
2023-03-10T16:20:14.173Z,1.63
2023-03-10T16:22:43.009Z,1.75
2023-03-10T16:25:15.993Z,1.10
2023-03-10T16:27:45.140Z,1.25
2023-03-10T16:30:14.710Z,1.70
2023-03-10T16:32:47.309Z,1.70
2023-03-10T16:35:15.797Z,1.73
2023-03-10T16:37:43.929Z,1.33
2023-03-10T16:40:12.395Z,1.42
2023-03-10T16:42:43.264Z,1.60
2023-03-10T16:45:11.313Z,1.70
2023-03-10T16:47:39.402Z,1.80
2023-03-10T16:50:07.773Z,1.30
2023-03-10T16:52:41.003Z,1.88
2023-03-10T16:55:16.776Z,1.60
2023-03-10T16:57:47.440Z,2.33
2023-03-10T17:00:21.115Z,1.30
2023-03-10T17:02:49.735Z,1.65
2023-03-10T17:05:17.780Z,1.75
2023-03-10T17:07:55.196Z,2.08
2023-03-10T17:10:26.903Z,1.77
2023-03-10T17:12:54.896Z,2.67
2023-03-10T17:15:22.966Z,2.55
2023-03-10T17:17:50.583Z,2.28
2023-03-10T17:20:19.091Z,2.10
2023-03-10T17:22:46.882Z,1.95
2023-03-10T17:25:14.631Z,1.90
2023-03-10T17:27:43.294Z,1.75
2023-03-10T17:30:12.470Z,2.05
2023-03-10T17:32:40.039Z,2.05
2023-03-10T17:35:08.521Z,1.70
2023-03-10T17:37:36.193Z,1.70
2023-03-10T17:40:04.944Z,1.70
2023-03-10T17:42:33.175Z,1.48
2023-03-10T17:45:01.541Z,2.17
2023-03-10T17:47:29.089Z,1.75
2023-03-10T17:50:00.302Z,1.52
2023-03-10T17:54:58.291Z,6.28
2023-03-10T17:57:25.941Z,7.90
2023-03-10T17:59:53.533Z,15.10
2023-03-10T18:02:21.153Z,17.48
2023-03-10T18:04:48.692Z,9.20
2023-03-10T18:07:16.078Z,5.97
2023-03-10T18:09:43.540Z,9.35
2023-03-10T18:12:11.053Z,9.18
2023-03-10T18:14:38.654Z,9.40
2023-03-10T18:17:06.249Z,5.68
2023-03-10T18:19:34.377Z,6.25
2023-03-10T18:22:05.578Z,6.18
2023-03-10T18:24:33.472Z,4.90
2023-03-10T18:27:01.820Z,5.03
2023-03-10T18:29:29.311Z,4.55
2023-03-10T18:31:56.752Z,6.40
2023-03-10T18:34:24.180Z,7.40
2023-03-10T18:36:51.933Z,7.60
2023-03-10T18:39:19.758Z,7.32
2023-03-10T18:41:47.499Z,6.72
2023-03-10T18:44:15.062Z,3.90
2023-03-10T18:46:42.516Z,3.38
2023-03-10T18:49:10.332Z,5.22
2023-03-10T18:51:37.762Z,4.80
2023-03-10T18:54:06.857Z,3.30
2023-03-10T18:56:34.719Z,4.63
2023-03-10T18:59:02.183Z,7.13
2023-03-10T19:01:29.637Z,21.20
2023-03-10T19:03:57.290Z,24.33
2023-03-10T19:06:33.379Z,10.65
2023-03-10T19:09:01.492Z,12.00
2023-03-10T19:11:38.832Z,7.90
2023-03-10T19:14:07.331Z,6.03
2023-03-10T19:16:39.320Z,4.72
2023-03-10T19:19:07.138Z,5.22
2023-03-10T19:21:35.737Z,6.25
2023-03-10T19:24:04.924Z,5.45
2023-03-10T19:26:33.402Z,5.78
2023-03-10T19:29:00.926Z,4.88
2023-03-10T19:31:28.324Z,4.30
2023-03-10T19:33:57.440Z,4.43
2023-03-10T19:36:26.570Z,4.32
2023-03-10T19:38:54.120Z,4.35
2023-03-10T19:41:21.644Z,5.00
2023-03-10T19:43:50.624Z,5.15
2023-03-10T19:46:19.049Z,6.13
2023-03-10T19:48:46.858Z,13.52
2023-03-10T19:51:23.134Z,15.82
2023-03-10T19:53:52.872Z,10.05
2023-03-10T19:56:21.353Z,7.70
2023-03-10T19:58:50.012Z,6.32
2023-03-10T20:01:22.027Z,12.65
2023-03-10T20:03:50.897Z,12.45
2023-03-10T20:06:18.769Z,8.32
2023-03-10T20:08:46.546Z,6.38
2023-03-10T20:11:14.805Z,11.77
2023-03-10T20:13:43.482Z,15.07
2023-03-10T20:16:16.039Z,6.32
2023-03-10T20:18:43.548Z,6.57
2023-03-10T20:21:11.282Z,5.72
2023-03-10T20:23:39.082Z,9.10
2023-03-10T20:26:09.093Z,9.45
2023-03-10T20:28:39.320Z,10.80
2023-03-10T20:31:07.573Z,15.68
2023-03-10T20:33:36.650Z,11.27
2023-03-10T20:36:04.715Z,34.70
2023-03-10T20:38:32.292Z,27.00
2023-03-10T20:41:00.668Z,14.13
2023-03-10T20:43:28.190Z,38.15
2023-03-10T20:45:55.866Z,19.65
2023-03-10T20:48:23.511Z,17.67
2023-03-10T20:50:55.862Z,20.50
2023-03-10T20:53:23.542Z,14.60
2023-03-10T20:55:51.221Z,18.73
2023-03-10T20:58:19.331Z,10.95
2023-03-10T21:00:50.756Z,29.02
2023-03-10T21:03:18.715Z,19.25
2023-03-10T21:05:46.265Z,21.38
2023-03-10T21:08:14.081Z,15.05
2023-03-10T21:10:44.505Z,9.77
2023-03-10T21:13:12.402Z,7.80
2023-03-10T21:15:41.017Z,7.93
2023-03-10T21:18:09.299Z,8.23
2023-03-10T21:20:36.773Z,8.35
2023-03-10T21:23:05.014Z,8.45
2023-03-10T21:25:32.931Z,6.93
2023-03-10T21:28:01.900Z,8.55
2023-03-10T21:30:31.904Z,7.10
2023-03-10T21:32:59.596Z,6.73
2023-03-10T21:35:30.567Z,7.22
2023-03-10T21:37:59.457Z,7.15
2023-03-10T21:40:27.706Z,6.68
2023-03-10T21:42:55.443Z,7.70
2023-03-10T21:45:24.757Z,8.93
2023-03-10T21:47:52.314Z,16.58
2023-03-10T21:50:20.019Z,10.35
2023-03-10T21:52:48.191Z,11.05
2023-03-10T21:55:19.860Z,9.52
2023-03-10T21:57:48.004Z,8.23
2023-03-10T22:00:17.320Z,9.65
2023-03-10T22:02:45.234Z,9.25
2023-03-10T22:05:15.214Z,9.07
2023-03-10T22:07:42.683Z,8.90
2023-03-10T22:10:11.727Z,7.65
2023-03-10T22:12:40.091Z,9.13
2023-03-10T22:15:09.382Z,7.88
2023-03-10T22:17:37.104Z,8.20
2023-03-10T22:20:07.071Z,8.02
2023-03-10T22:22:35.115Z,8.60
2023-03-10T22:25:02.884Z,9.32
2023-03-10T22:27:30.941Z,7.88
2023-03-10T22:29:59.059Z,7.97
2023-03-10T22:32:26.620Z,7.35
2023-03-10T22:34:54.004Z,8.05
2023-03-10T22:37:21.486Z,9.27
2023-03-10T22:39:49.137Z,7.97
2023-03-10T22:42:17.240Z,9.23
2023-03-10T22:44:44.720Z,8.10
2023-03-10T22:47:12.244Z,9.70
2023-03-10T22:49:41.905Z,9.60
2023-03-10T22:52:10.963Z,10.98
2023-03-10T22:54:38.613Z,10.35
2023-03-10T22:57:06.606Z,10.73
2023-03-10T22:59:34.184Z,11.85
2023-03-10T23:02:01.802Z,9.77
2023-03-10T23:04:29.406Z,9.27
2023-03-10T23:06:56.837Z,11.00
2023-03-10T23:09:24.397Z,10.48
2023-03-10T23:11:51.849Z,8.93
2023-03-10T23:14:19.306Z,7.20
2023-03-10T23:16:46.806Z,7.95
2023-03-10T23:19:15.769Z,7.97
2023-03-10T23:21:43.220Z,7.75
2023-03-10T23:24:10.713Z,7.97
2023-03-10T23:26:38.121Z,8.20
2023-03-10T23:29:05.483Z,8.00
2023-03-10T23:31:32.995Z,8.57
2023-03-10T23:34:00.670Z,8.02
2023-03-10T23:36:28.067Z,8.10
2023-03-10T23:38:55.517Z,8.50
2023-03-10T23:41:22.985Z,8.23
2023-03-10T23:43:52.022Z,8.52
2023-03-10T23:46:21.874Z,8.88
2023-03-10T23:48:49.587Z,8.70
2023-03-10T23:51:17.503Z,8.02
2023-03-10T23:53:45.802Z,11.20
2023-03-10T23:56:13.360Z,8.38
2023-03-10T23:58:41.214Z,8.38
